Time;durP1;ratioP1;P1;durP2;ratioP2;P2;SDS_P1;SDS_P2;PMS_P1;PMS_P2;Temp;Humidity;BMP_temperature;BMP_pressure;BME280_temperature;BME280_humidity;BME280_pressure;Samples;Min_cycle;Max_cycle;Signal;HPM_P1;HPM_P2
2021/07/17 00:00:24;;;;;;;5.10;1.30;;;24.60;67.90;;;;;;4972855;28;20723;-70
2021/07/17 00:02:50;;;;;;;1.25;0.90;;;24.60;68.00;;;;;;4974063;28;20235;-70
2021/07/17 00:05:17;;;;;;;1.20;1.10;;;24.60;67.90;;;;;;4973761;28;20340;-70
2021/07/17 00:07:43;;;;;;;1.40;1.02;;;24.60;68.00;;;;;;4971298;28;20223;-70
2021/07/17 00:10:09;;;;;;;1.00;0.85;;;24.60;68.00;;;;;;4971962;28;20299;-70
2021/07/17 00:12:36;;;;;;;1.15;1.00;;;24.60;68.00;;;;;;4979310;28;20797;-69
2021/07/17 00:15:02;;;;;;;0.95;0.95;;;24.60;68.00;;;;;;4985955;28;20540;-70
2021/07/17 00:17:29;;;;;;;0.90;0.90;;;24.60;68.00;;;;;;4972902;28;20578;-71
2021/07/17 00:19:55;;;;;;;2.00;1.10;;;24.60;68.10;;;;;;4972224;28;20311;-70
2021/07/17 00:22:22;;;;;;;0.88;0.88;;;24.60;68.00;;;;;;4973077;28;20226;-70
2021/07/17 00:24:48;;;;;;;0.98;0.98;;;24.60;67.90;;;;;;4972933;28;20226;-70
2021/07/17 00:27:15;;;;;;;1.45;0.95;;;24.60;68.00;;;;;;4972510;28;20581;-70
2021/07/17 00:29:43;;;;;;;0.80;0.80;;;24.60;68.00;;;;;;4972457;28;20691;-71
2021/07/17 00:32:09;;;;;;;1.13;1.10;;;24.60;68.00;;;;;;4972968;28;20231;-70
2021/07/17 00:34:36;;;;;;;1.35;0.80;;;24.60;68.00;;;;;;4973010;28;20221;-72
2021/07/17 00:37:02;;;;;;;0.98;0.90;;;24.60;68.00;;;;;;4972706;28;20315;-71
2021/07/17 00:39:29;;;;;;;0.85;0.85;;;24.60;67.90;;;;;;4972515;28;20208;-71
2021/07/17 00:41:55;;;;;;;0.80;0.80;;;24.60;67.90;;;;;;4972586;28;20211;-71
2021/07/17 00:44:22;;;;;;;0.80;0.80;;;24.60;67.90;;;;;;4972324;28;20218;-71
2021/07/17 00:46:48;;;;;;;1.35;1.00;;;24.60;67.90;;;;;;4974811;28;20208;-70
2021/07/17 00:49:14;;;;;;;0.90;0.90;;;24.60;67.90;;;;;;4966994;28;20224;-70
2021/07/17 00:51:41;;;;;;;1.08;0.98;;;24.60;67.90;;;;;;4972640;28;20201;-70
2021/07/17 00:54:07;;;;;;;1.00;1.00;;;24.60;68.00;;;;;;4971105;28;20207;-71
2021/07/17 00:56:34;;;;;;;1.17;1.08;;;24.50;67.90;;;;;;4972842;28;20228;-71
2021/07/17 00:59:01;;;;;;;0.63;0.63;;;24.60;67.90;;;;;;4971620;28;20196;-70
2021/07/17 01:01:27;;;;;;;1.20;1.00;;;24.60;67.90;;;;;;4970778;28;20207;-70
2021/07/17 01:03:54;;;;;;;0.75;0.75;;;24.60;68.00;;;;;;4982038;28;20214;-70
2021/07/17 01:06:20;;;;;;;1.88;1.00;;;24.60;68.00;;;;;;4972692;28;20320;-70
2021/07/17 01:08:47;;;;;;;0.98;0.93;;;24.50;68.00;;;;;;4972087;28;20411;-69
2021/07/17 01:11:13;;;;;;;1.05;0.95;;;24.60;68.00;;;;;;4970802;28;20236;-71
2021/07/17 01:13:40;;;;;;;1.10;1.00;;;24.60;68.00;;;;;;4970603;28;20299;-71
2021/07/17 01:16:06;;;;;;;1.85;0.95;;;24.60;68.10;;;;;;4972365;28;20226;-71
2021/07/17 01:18:33;;;;;;;1.15;1.02;;;24.60;68.10;;;;;;4971351;28;20212;-72
2021/07/17 01:20:59;;;;;;;0.90;0.90;;;24.50;68.00;;;;;;4972460;28;20242;-71
2021/07/17 01:23:25;;;;;;;1.80;1.10;;;24.60;68.10;;;;;;4971619;28;20227;-71
2021/07/17 01:25:52;;;;;;;0.80;0.80;;;24.60;68.10;;;;;;4972562;28;20315;-72
2021/07/17 01:28:18;;;;;;;0.90;0.90;;;24.50;68.00;;;;;;4971350;28;20215;-70
2021/07/17 01:30:45;;;;;;;0.93;0.93;;;24.60;68.00;;;;;;4971001;28;20230;-70
2021/07/17 01:33:12;;;;;;;2.67;1.20;;;24.50;67.90;;;;;;4971945;28;20204;-70
2021/07/17 01:35:38;;;;;;;0.80;0.80;;;24.60;68.00;;;;;;4971956;28;20232;-70
2021/07/17 01:38:05;;;;;;;1.50;1.10;;;24.50;68.00;;;;;;4976026;28;20208;-70
2021/07/17 01:40:31;;;;;;;0.90;0.90;;;24.50;68.00;;;;;;4971014;28;20648;-71
2021/07/17 01:42:58;;;;;;;1.08;0.98;;;24.60;68.10;;;;;;4972053;28;20291;-71
2021/07/17 01:45:24;;;;;;;0.80;0.80;;;24.50;68.00;;;;;;4971982;28;20583;-70
2021/07/17 01:47:51;;;;;;;1.10;1.00;;;24.50;67.90;;;;;;4971753;28;20213;-70
2021/07/17 01:50:17;;;;;;;1.00;1.00;;;24.60;68.10;;;;;;4971391;28;20246;-70
2021/07/17 01:52:43;;;;;;;1.05;0.98;;;24.50;68.10;;;;;;4970854;28;20274;-70
2021/07/17 01:55:10;;;;;;;0.93;0.90;;;24.50;68.10;;;;;;4972038;28;20332;-70
2021/07/17 01:57:38;;;;;;;1.05;1.00;;;24.50;68.10;;;;;;4971661;28;20206;-70
2021/07/17 02:00:04;;;;;;;1.10;1.00;;;24.50;68.20;;;;;;4971013;28;20219;-70
2021/07/17 02:02:30;;;;;;;1.10;1.05;;;24.60;68.30;;;;;;4971249;28;20204;-69
2021/07/17 02:04:57;;;;;;;0.90;0.90;;;24.50;68.20;;;;;;4971074;28;20269;-70
2021/07/17 02:07:23;;;;;;;1.00;1.00;;;24.50;68.20;;;;;;4971464;28;20210;-70
2021/07/17 02:09:50;;;;;;;1.00;1.00;;;24.50;68.10;;;;;;4971657;28;20248;-70
2021/07/17 02:12:16;;;;;;;1.20;1.00;;;24.50;68.20;;;;;;4973036;28;20208;-69
2021/07/17 02:14:43;;;;;;;1.98;0.95;;;24.50;68.20;;;;;;4973920;28;20224;-70
2021/07/17 02:17:09;;;;;;;1.45;0.90;;;24.50;68.20;;;;;;4976194;28;20204;-70
2021/07/17 02:19:36;;;;;;;1.20;1.00;;;24.50;68.30;;;;;;4974198;28;20230;-70
2021/07/17 02:22:02;;;;;;;1.10;1.00;;;24.50;68.30;;;;;;4974193;28;20589;-71
2021/07/17 02:24:29;;;;;;;1.17;1.08;;;24.60;68.40;;;;;;4974928;28;20232;-71
2021/07/17 02:26:55;;;;;;;0.80;0.80;;;24.50;68.30;;;;;;4975479;28;20204;-69
2021/07/17 02:29:22;;;;;;;0.90;0.90;;;24.50;68.20;;;;;;4980784;28;20294;-69
2021/07/17 02:31:48;;;;;;;0.95;0.95;;;24.50;68.20;;;;;;4975230;28;20201;-70
2021/07/17 02:34:15;;;;;;;0.98;0.98;;;24.50;68.20;;;;;;4974949;28;20303;-72
2021/07/17 02:36:41;;;;;;;1.05;1.05;;;24.50;68.30;;;;;;4974933;28;20203;-70
2021/07/17 02:39:08;;;;;;;0.80;0.80;;;24.50;68.30;;;;;;4973504;28;20491;-69
2021/07/17 02:41:34;;;;;;;1.20;1.05;;;24.50;68.30;;;;;;4974074;28;20689;-69
2021/07/17 02:44:00;;;;;;;1.13;1.05;;;24.50;68.30;;;;;;4974972;28;20524;-70
2021/07/17 02:46:27;;;;;;;1.35;1.15;;;24.50;68.30;;;;;;4969786;28;20580;-69
2021/07/17 02:48:53;;;;;;;1.20;1.10;;;24.50;68.30;;;;;;4971076;28;20553;-69
2021/07/17 02:51:20;;;;;;;1.40;0.90;;;24.50;68.30;;;;;;4973248;28;20594;-69
2021/07/17 02:53:46;;;;;;;1.38;1.10;;;24.50;68.30;;;;;;4974119;28;20713;-69
2021/07/17 02:56:13;;;;;;;0.90;0.90;;;24.50;68.30;;;;;;4969653;28;20650;-69
2021/07/17 02:58:39;;;;;;;0.90;0.90;;;24.50;68.30;;;;;;4973159;28;20215;-68
2021/07/17 03:01:06;;;;;;;1.00;0.90;;;24.50;68.40;;;;;;4973883;28;20675;-69
2021/07/17 03:03:32;;;;;;;1.58;1.15;;;24.50;68.40;;;;;;4974632;28;20196;-69
2021/07/17 03:05:58;;;;;;;0.80;0.80;;;24.50;68.30;;;;;;4974712;28;20236;-68
2021/07/17 03:08:25;;;;;;;0.90;0.90;;;24.50;68.40;;;;;;4973777;28;20213;-69
2021/07/17 03:10:51;;;;;;;1.45;1.13;;;24.50;68.40;;;;;;4974274;28;20311;-69
2021/07/17 03:13:18;;;;;;;1.30;1.20;;;24.50;68.50;;;;;;4973574;28;20223;-68
2021/07/17 03:15:46;;;;;;;1.00;1.00;;;24.50;68.40;;;;;;4974310;28;20300;-68
2021/07/17 03:18:12;;;;;;;0.98;0.95;;;24.50;68.50;;;;;;4972461;28;20219;-69
2021/07/17 03:20:39;;;;;;;1.20;1.02;;;24.50;68.40;;;;;;4974166;28;20288;-69
2021/07/17 03:23:05;;;;;;;0.98;0.98;;;24.50;68.40;;;;;;4973061;28;20210;-69
2021/07/17 03:25:32;;;;;;;1.45;0.90;;;24.50;68.40;;;;;;4973007;28;20225;-68
2021/07/17 03:27:58;;;;;;;1.20;1.10;;;24.50;68.40;;;;;;4965195;28;20291;-69
2021/07/17 03:30:25;;;;;;;0.82;0.82;;;24.50;68.40;;;;;;4973275;28;20236;-69
2021/07/17 03:32:51;;;;;;;1.00;1.00;;;24.50;68.40;;;;;;4973328;28;20216;-68
2021/07/17 03:35:18;;;;;;;1.05;1.00;;;24.50;68.50;;;;;;4974138;28;20281;-69
2021/07/17 03:37:44;;;;;;;0.90;0.90;;;24.50;68.50;;;;;;4983669;28;20223;-69
2021/07/17 03:40:10;;;;;;;1.00;0.90;;;24.50;68.50;;;;;;4973392;28;20587;-69
2021/07/17 03:42:37;;;;;;;1.00;1.00;;;24.50;68.50;;;;;;4973123;28;20578;-69
2021/07/17 03:45:03;;;;;;;1.13;0.98;;;24.50;68.60;;;;;;4973499;28;20560;-68
2021/07/17 03:47:30;;;;;;;1.10;1.10;;;24.50;68.50;;;;;;4972770;28;20922;-67
2021/07/17 03:49:56;;;;;;;1.38;1.27;;;24.50;68.50;;;;;;4971024;28;20291;-68
2021/07/17 03:52:23;;;;;;;1.20;1.00;;;24.50;68.40;;;;;;4973323;28;20211;-68
2021/07/17 03:54:49;;;;;;;0.90;0.90;;;24.50;68.40;;;;;;4983925;28;20223;-68
2021/07/17 03:57:15;;;;;;;1.00;1.00;;;24.50;68.50;;;;;;4972858;28;20235;-68
2021/07/17 03:59:42;;;;;;;1.20;1.13;;;24.50;68.40;;;;;;4971446;28;20208;-69
2021/07/17 04:02:08;;;;;;;1.02;0.93;;;24.50;68.40;;;;;;4973394;28;20307;-68
2021/07/17 04:04:40;;;;;;;1.10;1.00;;;24.50;68.40;;;;;;4972592;28;20256;-68
2021/07/17 04:07:06;;;;;;;0.90;0.90;;;24.50;68.50;;;;;;4973771;28;20570;-68
2021/07/17 04:09:33;;;;;;;1.05;1.00;;;24.50;68.40;;;;;;4972103;28;20564;-69
2021/07/17 04:11:59;;;;;;;1.13;1.08;;;24.50;68.40;;;;;;4978672;28;20328;-68
2021/07/17 04:14:26;;;;;;;1.17;0.88;;;24.50;68.70;;;;;;4972336;28;20311;-68
2021/07/17 04:16:52;;;;;;;1.58;1.00;;;24.50;68.40;;;;;;4971548;28;20210;-68
2021/07/17 04:19:19;;;;;;;0.93;0.93;;;24.50;68.40;;;;;;4971690;28;20292;-68
2021/07/17 04:21:45;;;;;;;1.25;0.90;;;24.50;68.30;;;;;;4972464;28;20208;-69
2021/07/17 04:24:12;;;;;;;1.38;1.27;;;24.50;68.30;;;;;;4972453;28;20351;-68
2021/07/17 04:26:38;;;;;;;1.02;0.93;;;24.50;68.40;;;;;;4973100;28;20733;-68
2021/07/17 04:29:05;;;;;;;0.98;0.98;;;24.50;68.40;;;;;;4971814;28;20559;-68
2021/07/17 04:31:31;;;;;;;1.02;1.00;;;24.50;68.40;;;;;;4972530;28;20235;-68
2021/07/17 04:33:58;;;;;;;1.20;1.10;;;24.50;68.40;;;;;;4972435;28;20612;-68
2021/07/17 04:36:24;;;;;;;1.50;0.90;;;24.50;68.40;;;;;;4972708;28;20746;-69
2021/07/17 04:38:51;;;;;;;0.90;0.90;;;24.50;68.40;;;;;;4971707;28;20690;-68
2021/07/17 04:41:17;;;;;;;1.02;1.00;;;24.50;68.40;;;;;;4972508;28;20295;-68
2021/07/17 04:43:44;;;;;;;1.38;1.27;;;24.50;68.40;;;;;;4971707;28;20282;-69
2021/07/17 04:46:10;;;;;;;1.08;1.08;;;24.50;68.30;;;;;;4972360;28;20212;-69
2021/07/17 04:48:37;;;;;;;1.10;1.00;;;24.50;68.30;;;;;;4971828;28;20200;-69
2021/07/17 04:51:03;;;;;;;1.42;1.33;;;24.50;68.40;;;;;;4972095;28;20224;-69
2021/07/17 04:53:30;;;;;;;1.50;1.40;;;24.50;68.30;;;;;;4971446;28;20550;-69
2021/07/17 04:55:56;;;;;;;1.15;1.00;;;24.50;68.30;;;;;;4968359;28;20215;-69
2021/07/17 04:58:23;;;;;;;1.33;1.05;;;24.50;68.30;;;;;;4969850;28;20218;-69
2021/07/17 05:00:49;;;;;;;1.20;1.10;;;24.50;68.30;;;;;;4971696;28;20205;-68
2021/07/17 05:03:15;;;;;;;1.05;1.05;;;24.50;68.40;;;;;;4981757;28;20208;-69
2021/07/17 05:05:42;;;;;;;1.25;0.93;;;24.50;68.30;;;;;;4971193;28;20197;-69
2021/07/17 05:08:08;;;;;;;1.42;1.33;;;24.50;68.30;;;;;;4971857;28;20205;-68
2021/07/17 05:10:35;;;;;;;1.38;1.27;;;24.50;68.30;;;;;;4969756;28;20247;-68
2021/07/17 05:13:01;;;;;;;1.35;1.27;;;24.50;68.30;;;;;;4971502;28;20307;-68
2021/07/17 05:15:28;;;;;;;1.45;1.15;;;24.50;68.30;;;;;;4972208;28;20639;-69
2021/07/17 05:17:54;;;;;;;0.93;0.93;;;24.50;68.30;;;;;;4971289;28;20208;-69
2021/07/17 05:20:21;;;;;;;1.05;1.00;;;24.50;68.30;;;;;;4970582;28;20204;-68
2021/07/17 05:22:48;;;;;;;1.25;1.15;;;24.50;68.20;;;;;;4971642;28;20614;-69
2021/07/17 05:25:15;;;;;;;1.20;1.08;;;24.50;68.20;;;;;;4970766;28;20220;-68
2021/07/17 05:27:41;;;;;;;1.30;1.20;;;24.50;68.30;;;;;;4971659;28;20200;-68
2021/07/17 05:30:07;;;;;;;1.10;1.00;;;24.50;68.20;;;;;;4971052;28;20212;-69
2021/07/17 05:32:34;;;;;;;1.95;0.95;;;24.50;68.20;;;;;;4971716;28;20292;-68
2021/07/17 05:35:00;;;;;;;1.13;1.13;;;24.60;68.20;;;;;;4971099;28;20253;-68
2021/07/17 05:37:27;;;;;;;1.05;1.00;;;24.50;68.20;;;;;;4971416;28;20254;-69
2021/07/17 05:39:53;;;;;;;1.00;1.00;;;24.50;68.20;;;;;;4971005;28;20211;-69
2021/07/17 05:42:20;;;;;;;1.10;1.10;;;24.50;68.10;;;;;;4971521;28;20204;-68
2021/07/17 05:44:46;;;;;;;1.10;1.10;;;24.50;68.10;;;;;;4970665;28;20228;-69
2021/07/17 05:47:13;;;;;;;1.60;1.50;;;24.50;68.10;;;;;;4970670;28;20192;-69
2021/07/17 05:49:39;;;;;;;1.58;1.10;;;24.50;68.10;;;;;;4959106;28;20203;-69
2021/07/17 05:52:06;;;;;;;1.38;1.27;;;24.60;68.20;;;;;;4972075;28;20251;-68
2021/07/17 05:54:32;;;;;;;1.23;1.13;;;24.50;68.20;;;;;;4969916;28;20229;-69
2021/07/17 05:56:59;;;;;;;1.10;1.10;;;24.50;68.20;;;;;;4971818;28;20214;-69
2021/07/17 05:59:25;;;;;;;1.13;1.02;;;24.60;68.20;;;;;;4969670;28;22195;-70
2021/07/17 06:01:51;;;;;;;1.23;1.10;;;24.50;68.20;;;;;;4952357;28;20257;-70
2021/07/17 06:04:18;;;;;;;1.20;1.10;;;24.50;68.20;;;;;;4966348;28;20224;-70
2021/07/17 06:06:44;;;;;;;1.38;1.27;;;24.50;68.20;;;;;;4970418;28;20733;-65
2021/07/17 06:09:11;;;;;;;1.40;1.30;;;24.50;68.00;;;;;;4970369;28;20679;-69
2021/07/17 06:11:37;;;;;;;1.30;1.20;;;24.50;68.10;;;;;;4971331;28;20722;-69
2021/07/17 06:14:04;;;;;;;1.13;1.05;;;24.50;68.20;;;;;;4970959;28;20566;-69
2021/07/17 06:16:30;;;;;;;1.30;1.20;;;24.60;68.30;;;;;;4970433;28;20666;-70
2021/07/17 06:18:57;;;;;;;1.35;1.25;;;24.50;68.30;;;;;;4970440;28;20572;-69
2021/07/17 06:21:23;;;;;;;1.45;1.35;;;24.50;68.30;;;;;;4970582;28;20286;-69
2021/07/17 06:23:49;;;;;;;1.30;1.20;;;24.50;68.40;;;;;;4969297;28;20232;-69
2021/07/17 06:26:16;;;;;;;1.30;1.20;;;24.60;68.40;;;;;;4975091;28;20212;-69
2021/07/17 06:28:42;;;;;;;1.85;1.10;;;24.60;68.40;;;;;;4990516;28;20203;-69
2021/07/17 06:31:09;;;;;;;1.20;1.20;;;24.60;68.40;;;;;;4970091;28;20231;-70
2021/07/17 06:33:35;;;;;;;1.30;1.20;;;24.50;68.30;;;;;;4971466;28;20224;-69
2021/07/17 06:36:03;;;;;;;1.70;1.20;;;24.50;68.30;;;;;;4969373;28;20201;-68
2021/07/17 06:38:29;;;;;;;1.33;1.23;;;24.50;68.30;;;;;;4970522;28;20211;-69
2021/07/17 06:40:56;;;;;;;1.58;1.20;;;24.50;68.30;;;;;;4969610;28;20204;-66
2021/07/17 06:43:22;;;;;;;1.60;1.50;;;24.50;68.30;;;;;;4975964;28;20215;-67
2021/07/17 06:45:49;;;;;;;1.48;1.38;;;24.50;68.60;;;;;;4996572;23;20245;-54
2021/07/17 06:48:15;;;;;;;1.80;1.00;;;24.50;68.60;;;;;;5006709;28;20290;-54
2021/07/17 06:50:43;;;;;;;1.42;1.20;;;24.50;68.60;;;;;;5008444;28;20211;-56
2021/07/17 06:53:09;;;;;;;1.40;1.30;;;24.60;68.50;;;;;;5007103;28;20230;-57
2021/07/17 06:55:36;;;;;;;1.40;1.30;;;24.50;68.40;;;;;;5005244;28;20195;-57
2021/07/17 06:58:02;;;;;;;1.15;1.15;;;24.50;68.50;;;;;;5010070;28;20199;-57
2021/07/17 07:00:30;;;;;;;3.20;1.75;;;24.50;68.60;;;;;;5011741;28;20203;-56
2021/07/17 07:02:56;;;;;;;1.83;1.52;;;24.50;68.40;;;;;;5012507;28;20223;-55
2021/07/17 07:05:22;;;;;;;1.55;1.45;;;24.60;68.70;;;;;;5011964;28;20303;-55
2021/07/17 07:07:49;;;;;;;1.95;1.60;;;24.50;68.60;;;;;;5013224;28;20202;-55
2021/07/17 07:10:15;;;;;;;2.63;1.85;;;24.60;68.80;;;;;;5011978;28;20206;-56
2021/07/17 07:12:42;;;;;;;2.05;1.58;;;24.50;69.60;;;;;;5011502;28;20231;-57
2021/07/17 07:15:08;;;;;;;2.05;1.80;;;24.50;68.80;;;;;;5012313;28;20207;-54
2021/07/17 07:17:35;;;;;;;2.10;1.90;;;24.50;69.00;;;;;;5006340;28;20303;-53
2021/07/17 07:20:01;;;;;;;3.33;2.83;;;24.50;69.20;;;;;;5020331;28;20223;-54
2021/07/17 07:22:28;;;;;;;3.47;3.15;;;24.50;69.50;;;;;;5006520;28;20199;-53
2021/07/17 07:24:54;;;;;;;4.03;3.45;;;24.60;69.60;;;;;;5010513;28;20258;-55
2021/07/17 07:27:21;;;;;;;2.50;2.30;;;24.50;69.30;;;;;;5009866;28;20195;-51
2021/07/17 07:29:47;;;;;;;14.93;13.43;;;24.60;69.10;;;;;;5009003;28;20226;-53
2021/07/17 07:32:13;;;;;;;22.33;17.80;;;24.10;71.50;;;;;;5009805;28;20231;-48
2021/07/17 07:34:40;;;;;;;22.65;18.58;;;22.10;78.00;;;;;;5006988;28;20215;-55
2021/07/17 07:37:06;;;;;;;21.00;18.63;;;21.50;81.10;;;;;;5013380;28;20722;-51
2021/07/17 07:39:33;;;;;;;22.52;19.83;;;21.10;83.30;;;;;;5009222;28;20200;-48
2021/07/17 07:41:59;;;;;;;18.90;16.05;;;20.60;85.10;;;;;;5009701;28;20751;-53
2021/07/17 07:44:26;;;;;;;17.88;14.93;;;21.20;83.70;;;;;;5010636;28;20357;-53
2021/07/17 07:46:53;;;;;;;18.85;15.75;;;22.00;80.90;;;;;;5010747;28;20246;-52
2021/07/17 07:49:19;;;;;;;17.67;15.10;;;22.50;79.00;;;;;;5007427;28;20698;-53
2021/07/17 07:51:46;;;;;;;19.75;15.35;;;22.90;77.80;;;;;;5010817;28;20611;-47
2021/07/17 07:54:12;;;;;;;14.93;13.43;;;23.10;76.80;;;;;;5009449;28;20227;-50
2021/07/17 07:56:39;;;;;;;18.70;14.65;;;23.30;75.80;;;;;;5009013;28;20211;-48
2021/07/17 07:59:05;;;;;;;16.10;14.43;;;23.40;75.40;;;;;;5004193;28;20203;-48
2021/07/17 08:01:31;;;;;;;17.85;14.55;;;23.60;75.10;;;;;;5012352;28;20207;-49
2021/07/17 08:03:58;;;;;;;15.70;14.10;;;23.70;75.00;;;;;;5012678;28;20241;-49
2021/07/17 08:06:24;;;;;;;14.85;13.35;;;23.80;74.70;;;;;;5010506;28;20275;-49
2021/07/17 08:08:51;;;;;;;15.18;13.43;;;23.80;74.30;;;;;;5010463;28;20533;-48
2021/07/17 08:11:18;;;;;;;14.50;13.05;;;23.90;74.10;;;;;;5011501;28;20249;-47
2021/07/17 08:13:44;;;;;;;13.93;12.52;;;23.90;74.00;;;;;;5011830;28;20233;-48
2021/07/17 08:16:11;;;;;;;13.63;12.23;;;24.00;73.90;;;;;;5011469;28;20199;-52
2021/07/17 08:18:37;;;;;;;14.77;13.23;;;24.00;73.70;;;;;;5011275;28;20207;-49
2021/07/17 08:21:04;;;;;;;15.52;13.85;;;24.00;73.60;;;;;;5010278;28;20214;-49
2021/07/17 08:23:30;;;;;;;14.88;13.13;;;24.10;73.50;;;;;;5010334;28;20219;-47
2021/07/17 08:25:56;;;;;;;13.50;12.20;;;24.10;73.50;;;;;;5010728;28;20209;-50
2021/07/17 08:28:23;;;;;;;15.02;13.00;;;24.10;73.40;;;;;;5011996;28;20218;-51
2021/07/17 08:30:49;;;;;;;14.77;12.93;;;24.10;73.40;;;;;;5004619;28;20211;-55
2021/07/17 08:33:16;;;;;;;14.75;11.90;;;24.10;73.20;;;;;;5012279;28;20230;-54
2021/07/17 08:35:42;;;;;;;13.63;12.18;;;24.20;73.10;;;;;;5010520;28;20208;-56
2021/07/17 08:38:09;;;;;;;13.60;12.20;;;24.20;73.20;;;;;;5009573;28;20691;-47
2021/07/17 08:40:35;;;;;;;13.55;12.25;;;24.20;72.80;;;;;;4998610;28;20310;-52
2021/07/17 08:43:02;;;;;;;12.43;11.23;;;24.20;73.00;;;;;;5007939;28;20249;-55
2021/07/17 08:45:28;;;;;;;12.93;11.73;;;24.30;72.80;;;;;;5007121;28;20207;-54
2021/07/17 08:47:55;;;;;;;11.88;10.77;;;24.30;72.70;;;;;;5009921;28;20227;-51
2021/07/17 08:50:23;;;;;;;12.98;11.68;;;24.30;72.50;;;;;;5009341;28;20204;-50
2021/07/17 08:52:49;;;;;;;12.52;11.23;;;24.30;72.50;;;;;;5009642;28;20238;-55
2021/07/17 08:55:15;;;;;;;12.77;11.43;;;24.30;72.70;;;;;;5008761;28;20710;-48
2021/07/17 08:57:42;;;;;;;12.45;11.23;;;24.30;72.80;;;;;;5008343;28;20207;-50
2021/07/17 09:00:09;;;;;;;14.90;12.00;;;24.30;72.80;;;;;;5007230;28;20223;-50
2021/07/17 09:02:36;;;;;;;11.85;10.68;;;24.30;72.80;;;;;;5011303;28;20222;-50
2021/07/17 09:05:02;;;;;;;12.02;10.90;;;24.30;72.70;;;;;;5010132;28;20217;-51
2021/07/17 09:07:29;;;;;;;23.73;13.43;;;24.30;72.90;;;;;;5011126;28;20221;-57
2021/07/17 09:09:55;;;;;;;14.63;11.85;;;24.30;73.60;;;;;;5009510;28;20633;-57
2021/07/17 09:12:22;;;;;;;14.32;12.25;;;24.30;73.50;;;;;;5010770;28;20740;-57
2021/07/17 09:14:48;;;;;;;16.00;12.43;;;24.30;73.00;;;;;;5011374;28;20270;-57
2021/07/17 09:17:15;;;;;;;13.48;12.13;;;24.30;73.00;;;;;;5011138;28;20207;-56
2021/07/17 09:19:41;;;;;;;12.30;11.00;;;24.30;72.80;;;;;;5010701;28;20203;-55
2021/07/17 09:22:07;;;;;;;12.45;11.15;;;24.30;72.30;;;;;;5010186;28;20199;-57
2021/07/17 09:24:34;;;;;;;13.50;12.20;;;24.30;72.30;;;;;;5011399;28;20210;-57
2021/07/17 09:27:02;;;;;;;12.35;11.15;;;24.40;72.20;;;;;;5009016;28;20207;-57
2021/07/17 09:29:28;;;;;;;11.95;10.40;;;24.40;71.90;;;;;;5010846;28;20203;-57
2021/07/17 09:31:55;;;;;;;12.32;10.95;;;24.40;71.60;;;;;;5007338;28;20243;-57
2021/07/17 09:34:21;;;;;;;11.60;10.50;;;24.40;71.60;;;;;;4994462;28;20334;-58
2021/07/17 09:36:48;;;;;;;11.88;10.77;;;24.40;71.50;;;;;;4991517;28;20294;-56
2021/07/17 09:39:14;;;;;;;10.98;9.88;;;24.40;71.60;;;;;;4990947;28;20204;-56
2021/07/17 09:41:41;;;;;;;11.88;10.68;;;24.40;71.50;;;;;;5005881;28;20207;-56
2021/07/17 09:44:07;;;;;;;12.07;10.98;;;24.40;71.60;;;;;;5011174;28;20259;-57
2021/07/17 09:46:34;;;;;;;11.25;10.23;;;24.40;71.60;;;;;;5011389;28;20635;-55
2021/07/17 09:49:00;;;;;;;10.95;9.95;;;24.40;71.30;;;;;;5010640;28;20213;-57
2021/07/17 09:51:28;;;;;;;10.80;9.70;;;24.40;71.50;;;;;;5011075;28;20679;-57
2021/07/17 09:53:54;;;;;;;10.02;9.07;;;24.40;71.30;;;;;;5010801;28;20223;-57
2021/07/17 09:56:21;;;;;;;11.00;9.90;;;24.40;70.90;;;;;;5010886;28;20195;-57
2021/07/17 09:58:47;;;;;;;10.95;9.93;;;24.40;70.90;;;;;;5011269;28;20213;-57
2021/07/17 10:01:14;;;;;;;11.35;9.63;;;24.40;70.80;;;;;;5008718;28;20196;-56
2021/07/17 10:03:40;;;;;;;10.80;9.80;;;24.40;70.80;;;;;;5010894;28;20227;-58
2021/07/17 10:06:07;;;;;;;10.93;9.82;;;24.40;70.90;;;;;;5011073;28;20203;-57
2021/07/17 10:08:33;;;;;;;11.82;10.02;;;24.40;70.90;;;;;;5010495;28;20209;-57
2021/07/17 10:10:59;;;;;;;10.63;9.63;;;24.40;70.80;;;;;;5011287;28;20203;-57
2021/07/17 10:13:26;;;;;;;10.70;9.60;;;24.50;70.90;;;;;;5004677;28;20234;-58
2021/07/17 10:15:52;;;;;;;10.70;9.70;;;24.40;70.90;;;;;;5010712;28;20205;-58
2021/07/17 10:20:59;;;;;;;10.07;9.05;;;24.40;71.00;;;;;;5010441;28;20206;-58
2021/07/17 10:23:26;;;;;;;13.13;9.70;;;24.40;71.00;;;;;;5004873;28;20243;-55
2021/07/17 10:25:52;;;;;;;15.88;10.57;;;24.40;71.60;;;;;;5002982;28;20211;-54
2021/07/17 10:28:18;;;;;;;11.90;10.27;;;24.40;72.80;;;;;;5010145;28;20207;-60
2021/07/17 10:30:45;;;;;;;10.82;9.75;;;24.50;72.60;;;;;;5008814;28;20199;-60
2021/07/17 10:33:11;;;;;;;12.80;9.93;;;24.50;72.70;;;;;;5012170;28;20280;-60
2021/07/17 10:35:38;;;;;;;12.10;10.15;;;24.50;72.50;;;;;;5012609;28;20211;-59
2021/07/17 10:38:06;;;;;;;11.30;9.25;;;24.50;72.50;;;;;;5013644;28;20210;-61
2021/07/17 10:40:33;;;;;;;11.82;9.80;;;24.50;71.90;;;;;;5012331;28;20702;-58
2021/07/17 10:42:59;;;;;;;11.35;9.93;;;24.50;71.70;;;;;;5009582;28;20242;-56
2021/07/17 10:45:26;;;;;;;10.30;9.27;;;24.50;72.50;;;;;;5012580;28;20229;-57
2021/07/17 10:47:53;;;;;;;10.60;9.50;;;24.50;72.10;;;;;;5013343;28;20199;-52
2021/07/17 10:50:19;;;;;;;10.82;9.20;;;24.50;72.50;;;;;;5011521;28;20207;-53
2021/07/17 10:52:46;;;;;;;9.18;8.27;;;24.50;72.10;;;;;;5011774;28;20271;-54
2021/07/17 10:55:12;;;;;;;9.75;8.75;;;24.50;71.70;;;;;;5009533;28;20273;-58
2021/07/17 10:57:39;;;;;;;11.85;9.68;;;24.50;72.20;;;;;;5010235;28;20199;-60
2021/07/17 11:00:05;;;;;;;10.38;9.00;;;24.50;72.20;;;;;;5010039;28;20298;-61
2021/07/17 11:02:31;;;;;;;11.65;9.32;;;24.60;72.30;;;;;;5009319;28;20241;-59
2021/07/17 11:05:02;;;;;;;16.40;11.32;;;24.60;71.80;;;;;;5010769;28;20625;-59
2021/07/17 11:07:27;;;;;;;12.88;11.07;;;24.60;71.80;;;;;;5012498;28;20281;-57
2021/07/17 11:09:54;;;;;;;15.15;11.52;;;24.60;71.80;;;;;;5010908;28;20219;-57
2021/07/17 11:12:21;;;;;;;13.85;11.82;;;24.60;71.80;;;;;;5011629;28;20227;-55
2021/07/17 11:14:47;;;;;;;13.77;11.45;;;24.60;74.40;;;;;;5012797;28;20195;-59
2021/07/17 11:17:13;;;;;;;15.13;11.50;;;24.60;73.50;;;;;;5012232;28;20209;-59
2021/07/17 11:19:40;;;;;;;14.45;11.77;;;24.50;75.10;;;;;;5011614;28;20199;-59
2021/07/17 11:22:06;;;;;;;15.85;11.88;;;24.50;74.40;;;;;;5005455;28;20230;-62
2021/07/17 11:24:33;;;;;;;14.68;11.73;;;24.60;74.20;;;;;;5011872;28;20258;-48
2021/07/17 11:26:59;;;;;;;15.52;11.50;;;24.60;73.70;;;;;;5011343;28;20207;-53
2021/07/17 11:29:26;;;;;;;14.43;11.18;;;24.60;73.80;;;;;;5010907;28;20286;-57
2021/07/17 11:31:51;;;;;;;11.98;10.35;;;24.60;73.70;;;;;;5012147;28;20223;-57
2021/07/17 11:34:20;;;;;;;13.15;10.38;;;24.60;73.20;;;;;;5011616;28;20203;-58
2021/07/17 11:36:46;;;;;;;13.95;10.45;;;24.60;73.50;;;;;;5013779;28;20714;-57
2021/07/17 11:39:12;;;;;;;12.50;9.25;;;24.60;73.00;;;;;;5004419;28;20291;-57
2021/07/17 11:41:39;;;;;;;10.90;9.35;;;24.70;73.00;;;;;;4991476;28;20428;-57
2021/07/17 11:44:05;;;;;;;14.27;9.77;;;24.70;73.30;;;;;;5009372;28;20210;-57
2021/07/17 11:46:32;;;;;;;10.50;9.13;;;24.70;73.80;;;;;;5011472;28;20207;-57
2021/07/17 11:48:58;;;;;;;11.85;9.32;;;24.70;73.20;;;;;;5007248;28;20210;-57
2021/07/17 11:51:25;;;;;;;11.02;9.73;;;24.60;72.80;;;;;;5012511;28;20202;-58
2021/07/17 11:53:51;;;;;;;11.15;9.48;;;24.70;72.80;;;;;;5012603;28;20239;-55
2021/07/17 11:56:18;;;;;;;12.13;9.27;;;24.70;73.30;;;;;;5011637;28;20203;-56
2021/07/17 11:58:44;;;;;;;11.65;10.05;;;24.70;73.10;;;;;;5012182;28;20199;-56
2021/07/17 12:01:14;;;;;;;10.80;9.80;;;24.70;73.00;;;;;;5011940;28;20225;-58
2021/07/17 12:03:41;;;;;;;12.23;9.40;;;24.70;73.10;;;;;;5010974;28;20294;-57
2021/07/17 12:06:07;;;;;;;11.10;9.40;;;24.70;72.80;;;;;;5006926;28;20653;-57
2021/07/17 12:08:34;;;;;;;10.52;9.15;;;24.70;72.80;;;;;;5009067;28;20209;-58
2021/07/17 12:11:00;;;;;;;10.70;9.50;;;24.70;72.90;;;;;;5011557;28;20219;-58
2021/07/17 12:13:26;;;;;;;10.63;9.52;;;24.70;72.90;;;;;;5012202;28;20227;-57
2021/07/17 12:15:53;;;;;;;9.27;8.38;;;24.70;72.90;;;;;;5012472;28;20209;-58
2021/07/17 12:18:21;;;;;;;11.57;10.23;;;24.70;73.10;;;;;;5009129;28;20235;-58
2021/07/17 12:20:48;;;;;;;11.40;9.45;;;24.70;73.30;;;;;;5012151;28;20253;-57
2021/07/17 12:23:14;;;;;;;10.00;8.82;;;24.70;73.10;;;;;;5010759;28;20235;-57
2021/07/17 12:25:41;;;;;;;9.70;8.75;;;24.70;72.90;;;;;;5010969;28;20210;-57
2021/07/17 12:28:07;;;;;;;10.80;9.10;;;24.70;72.90;;;;;;5009793;28;20872;-57
2021/07/17 12:30:34;;;;;;;10.43;9.38;;;24.70;72.60;;;;;;5011582;28;20735;-57
2021/07/17 12:33:00;;;;;;;10.27;9.18;;;24.70;73.00;;;;;;5007349;28;20227;-57
2021/07/17 12:35:27;;;;;;;9.70;8.52;;;24.70;73.10;;;;;;5004036;28;20211;-57
2021/07/17 12:37:53;;;;;;;9.65;8.65;;;24.70;73.10;;;;;;5011164;28;20696;-57